Terminal Aerodrome Forecast
Issued by NWS

Current Version | Previous Version | Text Only | Print | Product List | Glossary On
Versions: 1 2 3 4 5 6 7 8 9 10 11 12 13 14 15 16
000
FTAK31 PAFA 160921 AAA
TAFAQT
TAF AMD
PAQT 160921Z 1609/1706 05019KT 1SM -SN BR OVC021
     FM161600 05022G28KT 1 1/2SM -SN BLSN OVC015=

USA.gov is the U.S. government's official web portal to all federal, state and local government web resources and services.